| time (UTC) | temp F | wind direction | speed knots | gust knots | rain 1hr in | rain 24hr in | rain mn in | humidity % | barometer mb |
| 20260505214329 | 80 | 264 | 1.7 | 6.1 | 0.00 | 0.00 | 0.00 | 11 | 996.7 |
| 20260505213825 | 80 | 160 | 2.6 | 8.7 | 0.00 | 0.00 | 0.00 | 10 | 996.4 |
| 20260505213324 | 79 | 259 | 3.5 | 5.2 | 0.00 | 0.00 | 0.00 | 10 | 996.4 |
| 20260505212820 | 81 | 222 | 2.6 | 7.0 | 0.00 | 0.00 | 0.00 | 10 | 996.4 |
| 20260505212317 | 80 | 246 | 2.6 | 7.0 | 0.00 | 0.00 | 0.00 | 10 | 996.4 |
| 20260505211812 | 80 | 152 | 1.7 | 6.1 | 0.00 | 0.00 | 0.00 | 10 | 996.4 |
| 20260505211310 | 81 | 256 | 6.1 | 7.0 | 0.00 | 0.00 | 0.00 | 10 | 996.4 |
| 20260505210806 | 81 | 358 | 4.3 | 12.2 | 0.00 | 0.00 | 0.00 | 10 | 996.0 |
| 20260505210304 | 81 | 7 | 2.6 | 9.6 | 0.00 | 0.00 | 0.00 | 10 | 996.4 |
| 20260505205801 | 81 | 252 | 7.8 | 12.2 | 0.00 | 0.00 | 0.00 | 10 | 996.0 |
| 20260505205259 | 81 | 265 | 0.9 | 6.1 | 0.00 | 0.00 | 0.00 | 10 | 996.0 |
| 20260505204755 | 82 | 258 | 7.0 | 13.9 | 0.00 | 0.00 | 0.00 | 10 | 996.4 |
| 20260505204253 | 82 | 18 | 2.6 | 7.8 | 0.00 | 0.00 | 0.00 | 10 | 996.0 |
| 20260505203750 | 81 | 271 | 1.7 | 11.3 | 0.00 | 0.00 | 0.00 | 10 | 996.0 |
| 20260505203247 | 81 | 259 | 3.5 | 7.8 | 0.00 | 0.00 | 0.00 | 10 | 996.0 |
| 20260505202743 | 81 | 257 | 6.1 | 7.8 | 0.00 | 0.00 | 0.00 | 10 | 996.4 |
| 20260505202239 | 81 | 260 | 6.1 | 7.0 | 0.00 | 0.00 | 0.00 | 10 | 996.0 |
| 20260505201736 | 81 | 268 | 1.7 | 7.0 | 0.00 | 0.00 | 0.00 | 10 | 996.4 |
| 20260505201233 | 81 | 252 | 1.7 | 6.1 | 0.00 | 0.00 | 0.00 | 10 | 996.4 |
| 20260505200732 | 82 | 155 | 3.5 | 11.3 | 0.00 | 0.00 | 0.00 | 10 | 996.4 |
| 20260505200229 | 81 | 294 | 2.6 | 12.2 | 0.00 | 0.00 | 0.00 | 10 | 996.4 |
| 20260505195723 | 81 | 261 | 2.6 | 7.8 | 0.00 | 0.00 | 0.00 | 10 | 996.4 |
| 20260505195221 | 80 | 144 | 6.1 | 7.8 | 0.00 | 0.00 | 0.00 | 10 | 996.4 |
| 20260505194718 | 81 | 141 | 1.7 | 6.1 | 0.00 | 0.00 | 0.00 | 10 | 996.4 |
| 20260505194215 | 80 | 246 | 6.1 | 7.0 | 0.00 | 0.00 | 0.00 | 10 | 996.4 |
| 20260505193711 | 81 | 290 | 4.3 | 7.0 | 0.00 | 0.00 | 0.00 | 10 | 996.4 |
| 20260505193208 | 81 | 250 | 4.3 | 7.0 | 0.00 | 0.00 | 0.00 | 10 | 996.7 |
| 20260505192707 | 81 | 293 | 2.6 | 6.1 | 0.00 | 0.00 | 0.00 | 10 | 996.7 |
| 20260505192203 | 81 | 130 | 4.3 | 14.8 | 0.00 | 0.00 | 0.00 | 10 | 997.0 |
| 20260505191701 | 81 | 166 | 3.5 | 11.3 | 0.00 | 0.00 | 0.00 | 10 | 997.0 |
| 20260505191159 | 81 | 242 | 1.7 | 7.8 | 0.00 | 0.00 | 0.00 | 10 | 997.0 |
| 20260505190655 | 80 | 226 | 4.3 | 14.8 | 0.00 | 0.00 | 0.00 | 10 | 996.7 |
| 20260505190150 | 81 | 230 | 4.3 | 6.1 | 0.00 | 0.00 | 0.00 | 10 | 997.4 |
| 20260505185647 | 81 | 292 | 3.5 | 5.2 | 0.00 | 0.00 | 0.00 | 10 | 997.7 |
| 20260505185143 | 81 | 255 | 1.7 | 6.1 | 0.00 | 0.00 | 0.00 | 10 | 997.0 |
| 20260505184640 | 79 | 242 | 8.7 | 11.3 | 0.00 | 0.00 | 0.00 | 12 | 997.4 |
| 20260505184137 | 80 | 243 | 2.6 | 7.0 | 0.00 | 0.00 | 0.00 | 13 | 997.7 |
| 20260505183634 | 80 | 267 | 1.7 | 3.5 | 0.00 | 0.00 | 0.00 | 13 | 997.4 |
| 20260505183131 | 80 | 267 | 7.8 | 11.3 | 0.00 | 0.00 | 0.00 | 12 | 997.7 |
| 20260505182627 | 80 | 246 | 9.6 | 14.8 | 0.00 | 0.00 | 0.00 | 11 | 997.7 |
| 20260505182124 | 80 | 261 | 11.3 | 14.8 | 0.00 | 0.00 | 0.00 | 12 | 998.1 |
| 20260505181621 | 80 | 262 | 3.5 | 7.8 | 0.00 | 0.00 | 0.00 | 12 | 997.7 |
| 20260505181118 | 80 | 247 | 4.3 | 7.8 | 0.00 | 0.00 | 0.00 | 12 | 997.7 |
| 20260505180614 | 79 | 246 | 3.5 | 3.5 | 0.00 | 0.00 | 0.00 | 13 | 998.1 |
| 20260505180112 | 79 | 233 | 2.6 | 7.8 | 0.00 | 0.00 | 0.00 | 14 | 998.1 |
| 20260505175607 | 79 | 245 | 7.0 | 7.8 | 0.00 | 0.00 | 0.00 | 14 | 998.1 |
| 20260505175104 | 80 | 233 | 2.6 | 3.5 | 0.00 | 0.00 | 0.00 | 14 | 998.4 |
| 20260505174601 | 79 | 171 | 2.6 | 6.1 | 0.00 | 0.00 | 0.00 | 14 | 998.1 |
| 20260505174057 | 79 | 156 | 1.7 | 3.5 | 0.00 | 0.00 | 0.00 | 15 | 998.1 |
| 20260505173554 | 77 | 173 | 1.7 | 3.5 | 0.00 | 0.00 | 0.00 | 10 | 998.4 |
| 20260505173050 | 77 | 245 | 2.6 | 7.8 | 0.00 | 0.00 | 0.00 | 10 | 998.4 |
| 20260505172548 | 77 | 230 | 3.5 | 7.0 | 0.00 | 0.00 | 0.00 | 10 | 998.4 |
| 20260505172044 | 77 | 277 | 0.9 | 7.0 | 0.00 | 0.00 | 0.00 | 10 | 998.1 |
| 20260505171539 | 77 | 284 | 1.7 | 11.3 | 0.00 | 0.00 | 0.00 | 10 | 998.4 |
| 20260505171036 | 76 | 245 | 6.1 | 8.7 | 0.00 | 0.00 | 0.00 | 11 | 998.4 |
| 20260505170533 | 76 | 262 | 7.0 | 7.0 | 0.00 | 0.00 | 0.00 | 11 | 998.4 |
| 20260505170030 | 76 | 260 | 3.5 | 7.0 | 0.00 | 0.00 | 0.00 | 11 | 998.7 |
| 20260505165525 | 76 | 293 | 0.0 | 5.2 | 0.00 | 0.00 | 0.00 | 11 | 999.1 |
| 20260505165021 | 75 | 252 | 7.8 | 8.7 | 0.00 | 0.00 | 0.00 | 11 | 999.1 |
| 20260505164517 | 75 | 161 | 2.6 | 6.1 | 0.00 | 0.00 | 0.00 | 11 | 999.1 |
| 20260505164015 | 75 | 253 | 5.2 | 9.6 | 0.00 | 0.00 | 0.00 | 12 | 999.1 |
| 20260505163513 | 76 | 260 | 4.3 | 6.1 | 0.00 | 0.00 | 0.00 | 11 | 999.1 |
| 20260505163009 | 73 | 250 | 4.3 | 7.8 | 0.00 | 0.00 | 0.00 | 12 | 999.7 |
| 20260505162503 | 74 | 271 | 3.5 | 5.2 | 0.00 | 0.00 | 0.00 | 12 | 999.7 |
| 20260505162000 | 74 | 262 | 3.5 | 7.8 | 0.00 | 0.00 | 0.00 | 12 | 999.7 |
| 20260505161456 | 73 | 244 | 5.2 | 8.7 | 0.00 | 0.00 | 0.00 | 14 | 999.7 |
| 20260505160954 | 73 | 307 | 5.2 | 9.6 | 0.00 | 0.00 | 0.00 | 12 | 999.7 |
| 20260505160452 | 73 | 258 | 5.2 | 7.8 | 0.00 | 0.00 | 0.00 | 12 | 1000.1 |
| 20260505152922 | 74 | 287 | 0.9 | 3.5 | 0.00 | 0.00 | 0.00 | 17 | 1000.4 |
| 20260505152419 | 72 | 293 | 1.7 | 3.5 | 0.00 | 0.00 | 0.00 | 18 | 1000.4 |
| 20260505151913 | 71 | 219 | 1.7 | 3.5 | 0.00 | 0.00 | 0.00 | 18 | 1000.8 |
| 20260505151409 | 73 | 45 | 0.9 | 1.7 | 0.00 | 0.00 | 0.00 | 18 | 1000.4 |
| 20260505150902 | 70 | 292 | 0.0 | 1.7 | 0.00 | 0.00 | 0.00 | 11 | 1000.8 |
| 20260505150359 | 71 | 288 | 0.0 | 1.7 | 0.00 | 0.00 | 0.00 | 12 | 1000.8 |
| 20260505140329 | 64 | 267 | 2.6 | 5.2 | 0.00 | 0.00 | 0.00 | 20 | 1001.1 |
| 20260505130252 | 62 | 260 | 0.9 | 5.2 | 0.00 | 0.00 | 0.00 | 16 | 1001.1 |
| 20260505124743 | 60 | 276 | 0.9 | 1.7 | 0.00 | 0.00 | 0.00 | 18 | 1001.4 |
| 20260505124239 | 59 | 281 | 0.9 | 1.7 | 0.00 | 0.00 | 0.00 | 19 | 1001.1 |
| 20260505123735 | 59 | 293 | 0.0 | 0.0 | 0.00 | 0.00 | 0.00 | 20 | 1001.1 |
| 20260505123232 | 58 | 282 | 0.0 | 0.0 | 0.00 | 0.00 | 0.00 | 20 | 1001.4 |
| 20260505122728 | 57 | 327 | 0.0 | 0.9 | 0.00 | 0.00 | 0.00 | 19 | 1001.1 |
| 20260505122225 | 57 | 291 | 0.0 | 0.9 | 0.00 | 0.00 | 0.00 | 21 | 1001.4 |
| 20260505121716 | 57 | 292 | 0.0 | 1.7 | 0.00 | 0.00 | 0.00 | 22 | 1001.1 |
| 20260505121213 | 57 | 271 | 1.7 | 1.7 | 0.00 | 0.00 | 0.00 | 19 | 1001.1 |
| 20260505120710 | 56 | 323 | 0.0 | 0.9 | 0.00 | 0.00 | 0.00 | 21 | 1000.8 |
| 20260505120205 | 57 | 291 | 0.0 | 0.9 | 0.00 | 0.00 | 0.00 | 20 | 1000.8 |
| 20260505115659 | 56 | 285 | 0.0 | 0.9 | 0.00 | 0.00 | 0.00 | 20 | 1000.8 |
| 20260505115157 | 56 | 280 | 0.0 | 0.9 | 0.00 | 0.00 | 0.00 | 21 | 1000.8 |
| 20260505114654 | 56 | 292 | 0.0 | 0.0 | 0.00 | 0.00 | 0.00 | 21 | 1000.8 |
| 20260505114150 | 56 | 290 | 0.0 | 0.0 | 0.00 | 0.00 | 0.00 | 21 | 1000.8 |
| 20260505113647 | 55 | 288 | 0.0 | 0.0 | 0.00 | 0.00 | 0.00 | 19 | 1001.1 |
| 20260505113143 | 54 | 290 | 0.0 | 0.9 | 0.00 | 0.00 | 0.00 | 18 | 1001.1 |
| 20260505112639 | 54 | 292 | 0.0 | 0.9 | 0.00 | 0.00 | 0.00 | 18 | 1001.1 |
| 20260505112137 | 54 | 275 | 0.0 | 0.9 | 0.00 | 0.00 | 0.00 | 19 | 1000.8 |
| 20260505111631 | 53 | 280 | 0.0 | 0.0 | 0.00 | 0.00 | 0.00 | 20 | 1000.8 |
| 20260505111128 | 53 | 291 | 0.0 | 0.0 | 0.00 | 0.00 | 0.00 | 20 | 1001.1 |
| 20260505110624 | 53 | 291 | 0.0 | 0.0 | 0.00 | 0.00 | 0.00 | 20 | 1001.1 |
| 20260505110121 | 52 | 289 | 0.0 | 0.0 | 0.00 | 0.00 | 0.00 | 20 | 1001.1 |
| 20260505102057 | 50 | 295 | 0.0 | 0.0 | 0.00 | 0.00 | 0.00 | 22 | 1001.1 |
| 20260505101555 | 50 | 291 | 0.0 | 0.0 | 0.00 | 0.00 | 0.00 | 22 | 1001.1 |
| 20260505101051 | 50 | 291 | 0.0 | 0.9 | 0.00 | 0.00 | 0.00 | 22 | 1001.1 |
| 20260505100548 | 50 | 293 | 0.0 | 0.9 | 0.00 | 0.00 | 0.00 | 21 | 1001.1 |
| 20260505100045 | 50 | 292 | 0.0 | 0.0 | 0.00 | 0.00 | 0.00 | 21 | 1001.1 |
| 20260505095541 | 51 | 295 | 0.0 | 0.0 | 0.00 | 0.00 | 0.00 | 21 | 1001.1 |
| 20260505095038 | 51 | 292 | 0.0 | 0.0 | 0.00 | 0.00 | 0.00 | 21 | 1000.8 |
| 20260505094534 | 51 | 289 | 0.0 | 0.0 | 0.00 | 0.00 | 0.00 | 21 | 1001.1 |
| 20260505094030 | 51 | 290 | 0.0 | 0.0 | 0.00 | 0.00 | 0.00 | 21 | 1001.4 |
| 20260505093527 | 51 | 290 | 0.0 | 0.0 | 0.00 | 0.00 | 0.00 | 21 | 1001.1 |
| 20260505093024 | 51 | 290 | 0.0 | 0.0 | 0.00 | 0.00 | 0.00 | 21 | 1001.1 |
| 20260505092522 | 51 | 294 | 0.0 | 0.0 | 0.00 | 0.00 | 0.00 | 21 | 1001.1 |
| 20260505092020 | 51 | 295 | 0.0 | 0.0 | 0.00 | 0.00 | 0.00 | 21 | 1001.1 |
| 20260505091516 | 51 | 292 | 0.0 | 0.0 | 0.00 | 0.00 | 0.00 | 21 | 1001.1 |
| 20260505091015 | 51 | 292 | 0.0 | 0.0 | 0.00 | 0.00 | 0.00 | 21 | 1000.8 |
| 20260505090512 | 51 | 288 | 0.0 | 0.0 | 0.00 | 0.00 | 0.00 | 21 | 1000.8 |
| 20260505090010 | 51 | 287 | 0.0 | 0.0 | 0.00 | 0.00 | 0.00 | 21 | 1000.8 |
| 20260505085508 | 51 | 287 | 0.0 | 0.0 | 0.00 | 0.00 | 0.00 | 21 | 1001.1 |
| 20260505085006 | 51 | 290 | 0.0 | 0.0 | 0.00 | 0.00 | 0.00 | 21 | 1001.1 |
| 20260505084504 | 52 | 291 | 0.0 | 0.0 | 0.00 | 0.00 | 0.00 | 21 | 1001.4 |
| 20260505084001 | 52 | 294 | 0.0 | 0.0 | 0.00 | 0.00 | 0.00 | 20 | 1001.1 |
| 20260505083458 | 52 | 292 | 0.0 | 0.0 | 0.00 | 0.00 | 0.00 | 19 | 1001.1 |
| 20260505082954 | 52 | 293 | 0.0 | 0.0 | 0.00 | 0.00 | 0.00 | 19 | 1001.1 |
| 20260505082450 | 52 | 293 | 0.0 | 0.0 | 0.00 | 0.00 | 0.00 | 19 | 1001.1 |
| 20260505081947 | 53 | 289 | 0.0 | 0.0 | 0.00 | 0.00 | 0.00 | 19 | 1001.4 |
| 20260505081444 | 53 | 290 | 0.0 | 0.0 | 0.00 | 0.00 | 0.00 | 19 | 1001.4 |
| 20260505080941 | 53 | 314 | 0.0 | 0.0 | 0.00 | 0.00 | 0.00 | 19 | 1001.1 |
| 20260505080437 | 53 | 285 | 0.0 | 0.0 | 0.00 | 0.00 | 0.00 | 19 | 1001.4 |
| 20260505075932 | 53 | 290 | 0.0 | 0.0 | 0.00 | 0.00 | 0.00 | 19 | 1001.4 |
| 20260505075430 | 54 | 291 | 0.0 | 0.9 | 0.00 | 0.00 | 0.00 | 18 | 1001.4 |
| 20260505074927 | 54 | 286 | 0.0 | 0.9 | 0.00 | 0.00 | 0.00 | 18 | 1001.4 |
| 20260505074424 | 55 | 290 | 0.0 | 0.0 | 0.00 | 0.00 | 0.00 | 18 | 1001.4 |
| 20260505073921 | 55 | 291 | 0.0 | 0.0 | 0.00 | 0.00 | 0.00 | 18 | 1001.4 |
| 20260505073419 | 55 | 293 | 0.0 | 0.9 | 0.00 | 0.00 | 0.00 | 17 | 1001.4 |
| 20260505072916 | 55 | 263 | 1.7 | 2.6 | 0.00 | 0.00 | 0.00 | 20 | 1001.4 |
| 20260505072412 | 56 | 266 | 1.7 | 2.6 | 0.00 | 0.00 | 0.00 | 20 | 1001.4 |
| 20260505071908 | 56 | 278 | 0.9 | 3.5 | 0.00 | 0.00 | 0.00 | 20 | 1001.4 |
| 20260505071404 | 56 | 250 | 0.9 | 5.2 | 0.00 | 0.00 | 0.00 | 20 | 1001.4 |
| 20260505070903 | 56 | 270 | 0.9 | 2.6 | 0.00 | 0.00 | 0.00 | 20 | 1001.4 |
| 20260505070358 | 56 | 256 | 1.7 | 2.6 | 0.00 | 0.00 | 0.00 | 20 | 1001.4 |
| 20260505065854 | 56 | 284 | 0.9 | 2.6 | 0.00 | 0.00 | 0.00 | 20 | 1001.4 |
| 20260505065351 | 57 | 258 | 1.7 | 3.5 | 0.00 | 0.00 | 0.00 | 20 | 1001.4 |
| 20260505064848 | 57 | 277 | 1.7 | 3.5 | 0.00 | 0.00 | 0.00 | 20 | 1001.4 |
| 20260505064345 | 57 | 250 | 3.5 | 5.2 | 0.00 | 0.00 | 0.00 | 19 | 1001.4 |
| 20260505063844 | 57 | 255 | 3.5 | 7.0 | 0.00 | 0.00 | 0.00 | 19 | 1001.4 |
| 20260505063339 | 57 | 259 | 3.5 | 5.2 | 0.00 | 0.00 | 0.00 | 19 | 1001.4 |
| 20260505062836 | 57 | 274 | 0.9 | 5.2 | 0.00 | 0.00 | 0.00 | 19 | 1001.8 |
| 20260505062333 | 57 | 258 | 1.7 | 6.1 | 0.00 | 0.00 | 0.00 | 19 | 1001.4 |
| 20260505061830 | 57 | 267 | 3.5 | 3.5 | 0.00 | 0.00 | 0.00 | 19 | 1001.1 |
| 20260505061328 | 57 | 205 | 2.6 | 5.2 | 0.00 | 0.00 | 0.00 | 18 | 1001.4 |
| 20260505060825 | 57 | 295 | 1.7 | 5.2 | 0.00 | 0.00 | 0.00 | 19 | 1001.4 |
| 20260505060322 | 57 | 263 | 2.6 | 6.1 | 0.00 | 0.00 | 0.00 | 18 | 1001.1 |
| 20260505055818 | 57 | 297 | 1.7 | 2.6 | 0.00 | 0.00 | 0.00 | 19 | 1001.4 |
| 20260505055314 | 57 | 249 | 0.9 | 2.6 | 0.00 | 0.00 | 0.00 | 19 | 1001.4 |
| 20260505054812 | 57 | 271 | 2.6 | 6.1 | 0.00 | 0.00 | 0.00 | 19 | 1001.4 |
| 20260505054309 | 57 | 291 | 0.9 | 2.6 | 0.00 | 0.00 | 0.00 | 21 | 1001.4 |
| 20260505053807 | 57 | 268 | 0.9 | 2.6 | 0.00 | 0.00 | 0.00 | 21 | 1001.4 |
| 20260505053304 | 57 | 255 | 1.7 | 2.6 | 0.00 | 0.00 | 0.00 | 21 | 1001.4 |
| 20260505052800 | 58 | 287 | 0.9 | 3.5 | 0.00 | 0.00 | 0.00 | 19 | 1001.4 |
| 20260505052257 | 58 | 270 | 0.9 | 2.6 | 0.00 | 0.00 | 0.00 | 19 | 1001.4 |
| 20260505051754 | 58 | 243 | 1.7 | 1.7 | 0.00 | 0.00 | 0.00 | 19 | 1001.4 |
| 20260505051252 | 58 | 245 | 0.9 | 2.6 | 0.00 | 0.00 | 0.00 | 19 | 1001.4 |
| 20260505050750 | 58 | 149 | 1.7 | 1.7 | 0.00 | 0.00 | 0.00 | 19 | 1001.4 |
| 20260505050248 | 58 | 237 | 1.7 | 2.6 | 0.00 | 0.00 | 0.00 | 19 | 1001.8 |
| 20260505041718 | 59 | 237 | 0.9 | 3.5 | 0.00 | 0.00 | 0.00 | 19 | 1001.4 |
| 20260505041215 | 59 | 248 | 0.0 | 1.7 | 0.00 | 0.00 | 0.00 | 19 | 1001.4 |
| 20260505040712 | 59 | 276 | 0.9 | 1.7 | 0.00 | 0.00 | 0.00 | 19 | 1001.4 |
| 20260505040209 | 58 | 291 | 0.0 | 1.7 | 0.00 | 0.00 | 0.00 | 18 | 1001.4 |
| 20260505035706 | 59 | 287 | 0.0 | 0.0 | 0.00 | 0.00 | 0.00 | 18 | 1001.1 |
| 20260505035202 | 59 | 281 | 0.9 | 5.2 | 0.00 | 0.00 | 0.00 | 18 | 1001.1 |
| 20260505034659 | 60 | 268 | 0.9 | 1.7 | 0.00 | 0.00 | 0.00 | 17 | 1001.1 |
| 20260505034156 | 60 | 280 | 0.0 | 2.6 | 0.00 | 0.00 | 0.00 | 17 | 1000.8 |
| 20260505033652 | 60 | 184 | 2.6 | 2.6 | 0.00 | 0.00 | 0.00 | 17 | 1000.8 |
| 20260505033151 | 60 | 278 | 0.9 | 3.5 | 0.00 | 0.00 | 0.00 | 17 | 1001.1 |
| 20260505032649 | 60 | 283 | 0.9 | 2.6 | 0.00 | 0.00 | 0.00 | 17 | 1000.8 |
| 20260505032144 | 60 | 227 | 1.7 | 2.6 | 0.00 | 0.00 | 0.00 | 17 | 1001.1 |
| 20260505031642 | 60 | 268 | 0.0 | 1.7 | 0.00 | 0.00 | 0.00 | 17 | 1001.1 |
| 20260505031138 | 60 | 271 | 0.9 | 2.6 | 0.00 | 0.00 | 0.00 | 17 | 1000.8 |
| 20260505030635 | 60 | 286 | 0.9 | 2.6 | 0.00 | 0.00 | 0.00 | 18 | 1001.1 |
| 20260505030131 | 60 | 143 | 1.7 | 3.5 | 0.00 | 0.00 | 0.00 | 17 | 1000.8 |
| 20260505025627 | 59 | 227 | 0.9 | 2.6 | 0.00 | 0.00 | 0.00 | 17 | 1000.8 |
| 20260505025126 | 59 | 293 | 0.9 | 1.7 | 0.00 | 0.00 | 0.00 | 18 | 1001.1 |
| 20260505024622 | 57 | 280 | 0.0 | 1.7 | 0.00 | 0.00 | 0.00 | 18 | 1001.1 |
| 20260505024120 | 56 | 293 | 0.0 | 0.0 | 0.00 | 0.00 | 0.00 | 20 | 1001.1 |
| 20260505023617 | 56 | 280 | 0.0 | 0.9 | 0.00 | 0.00 | 0.00 | 19 | 1000.8 |
| 20260505023114 | 57 | 278 | 0.0 | 0.0 | 0.00 | 0.00 | 0.00 | 19 | 1000.8 |
| 20260505022612 | 59 | 268 | 0.0 | 0.9 | 0.00 | 0.00 | 0.00 | 18 | 1000.8 |
| 20260505022109 | 60 | 264 | 0.0 | 0.9 | 0.00 | 0.00 | 0.00 | 18 | 1000.8 |
| 20260505021605 | 60 | 283 | 0.0 | 0.9 | 0.00 | 0.00 | 0.00 | 18 | 1000.8 |
| 20260505021102 | 60 | 289 | 0.0 | 0.0 | 0.00 | 0.00 | 0.00 | 18 | 1000.8 |
| 20260505020602 | 60 | 284 | 0.0 | 0.0 | 0.00 | 0.00 | 0.00 | 18 | 1000.8 |
| 20260505020059 | 60 | 33 | 0.9 | 0.9 | 0.00 | 0.00 | 0.00 | 18 | 1000.8 |
| 20260505015556 | 60 | 282 | 0.0 | 0.0 | 0.00 | 0.00 | 0.00 | 17 | 1000.4 |
| 20260505015053 | 60 | 286 | 0.0 | 0.0 | 0.00 | 0.00 | 0.00 | 17 | 1000.8 |
| 20260505014550 | 60 | 285 | 0.0 | 0.0 | 0.00 | 0.00 | 0.00 | 17 | 1000.8 |
| 20260505014047 | 60 | 289 | 0.0 | 0.9 | 0.00 | 0.00 | 0.00 | 17 | 1000.8 |
| 20260505013544 | 61 | 286 | 0.0 | 0.9 | 0.00 | 0.00 | 0.00 | 17 | 1000.4 |
| 20260505013041 | 61 | 284 | 0.0 | 0.9 | 0.00 | 0.00 | 0.00 | 17 | 1000.4 |
| 20260505012539 | 61 | 286 | 0.0 | 0.0 | 0.00 | 0.00 | 0.00 | 16 | 1000.4 |
| 20260505012036 | 62 | 270 | 0.0 | 0.9 | 0.00 | 0.00 | 0.00 | 16 | 1000.1 |
| 20260505011531 | 62 | 285 | 0.0 | 0.9 | 0.00 | 0.00 | 0.00 | 16 | 1000.1 |
| 20260505011029 | 62 | 267 | 0.0 | 0.9 | 0.00 | 0.00 | 0.00 | 16 | 1000.1 |
| 20260505010524 | 62 | 290 | 0.0 | 0.9 | 0.00 | 0.00 | 0.00 | 17 | 1000.1 |
| 20260505010021 | 62 | 284 | 0.0 | 0.0 | 0.00 | 0.00 | 0.00 | 17 | 1000.1 |
| 20260505005517 | 62 | 291 | 0.0 | 0.0 | 0.00 | 0.00 | 0.00 | 17 | 1000.1 |
| 20260505005015 | 62 | 289 | 0.0 | 0.0 | 0.00 | 0.00 | 0.00 | 17 | 999.7 |
| 20260505004512 | 62 | 288 | 0.0 | 0.0 | 0.00 | 0.00 | 0.00 | 16 | 999.7 |
| 20260505004008 | 63 | 286 | 0.0 | 0.0 | 0.00 | 0.00 | 0.00 | 15 | 999.7 |
| 20260505003506 | 62 | 288 | 0.0 | 0.0 | 0.00 | 0.00 | 0.00 | 16 | 999.7 |
| 20260505003003 | 63 | 282 | 0.0 | 0.0 | 0.00 | 0.00 | 0.00 | 15 | 999.7 |
| 20260505002458 | 63 | 277 | 0.0 | 0.0 | 0.00 | 0.00 | 0.00 | 15 | 999.1 |
| 20260505001957 | 64 | 266 | 0.0 | 0.9 | 0.00 | 0.00 | 0.00 | 18 | 999.1 |
| 20260505001454 | 65 | 284 | 0.0 | 0.0 | 0.00 | 0.00 | 0.00 | 21 | 999.4 |
| 20260505000950 | 64 | 292 | 0.0 | 0.9 | 0.00 | 0.00 | 0.00 | 20 | 999.1 |
| 20260505000449 | 64 | 289 | 0.0 | 0.9 | 0.00 | 0.00 | 0.00 | 20 | 999.1 |
| 20260504235945 | 64 | 286 | 0.0 | 0.0 | 0.00 | 0.00 | 0.00 | 20 | 999.4 |
| 20260504235442 | 65 | 290 | 0.0 | 0.0 | 0.00 | 0.00 | 0.00 | 21 | 999.1 |
| 20260504234939 | 65 | 290 | 0.0 | 0.0 | 0.00 | 0.00 | 0.00 | 20 | 999.1 |
| 20260504234436 | 66 | 290 | 0.0 | 0.0 | 0.00 | 0.00 | 0.00 | 19 | 999.1 |
| 20260504233932 | 67 | 273 | 0.9 | 2.6 | 0.00 | 0.00 | 0.00 | 19 | 998.7 |
| 20260504233428 | 67 | 290 | 0.0 | 1.7 | 0.00 | 0.00 | 0.00 | 19 | 999.1 |
| 20260504232925 | 67 | 256 | 1.7 | 2.6 | 0.00 | 0.00 | 0.00 | 19 | 999.1 |
| 20260504232423 | 67 | 281 | 1.7 | 2.6 | 0.00 | 0.00 | 0.00 | 18 | 998.7 |
| 20260504231919 | 68 | 253 | 2.6 | 5.2 | 0.00 | 0.00 | 0.00 | 20 | 998.7 |
| 20260504231416 | 68 | 236 | 1.7 | 3.5 | 0.00 | 0.00 | 0.00 | 18 | 998.7 |
| 20260504230912 | 68 | 264 | 3.5 | 3.5 | 0.00 | 0.00 | 0.00 | 18 | 998.7 |
| 20260504230409 | 68 | 263 | 3.5 | 3.5 | 0.00 | 0.00 | 0.00 | 18 | 998.7 |
| 20260504225908 | 68 | 258 | 1.7 | 3.5 | 0.00 | 0.00 | 0.00 | 19 | 998.4 |
| 20260504225359 | 68 | 284 | 2.6 | 5.2 | 0.00 | 0.00 | 0.00 | 18 | 998.4 |
| 20260504224856 | 68 | 255 | 2.6 | 6.1 | 0.00 | 0.00 | 0.00 | 16 | 998.1 |
| 20260504224353 | 69 | 254 | 3.5 | 5.2 | 0.00 | 0.00 | 0.00 | 16 | 998.1 |
| 20260504223850 | 69 | 257 | 3.5 | 6.1 | 0.00 | 0.00 | 0.00 | 15 | 998.1 |
| 20260504223345 | 69 | 266 | 4.3 | 7.0 | 0.00 | 0.00 | 0.00 | 15 | 998.4 |
| 20260504222842 | 69 | 258 | 5.2 | 7.8 | 0.00 | 0.00 | 0.00 | 14 | 998.1 |
| 20260504222339 | 69 | 243 | 4.3 | 5.2 | 0.00 | 0.00 | 0.00 | 14 | 998.1 |
| 20260504221837 | 69 | 275 | 1.7 | 2.6 | 0.00 | 0.00 | 0.00 | 17 | 998.1 |
| 20260504221333 | 69 | 257 | 2.6 | 5.2 | 0.00 | 0.00 | 0.00 | 18 | 998.1 |
| 20260504220831 | 69 | 255 | 5.2 | 13.0 | 0.00 | 0.00 | 0.00 | 18 | 998.4 |
| 20260504220327 | 68 | 259 | 2.6 | 7.8 | 0.00 | 0.00 | 0.00 | 17 | 998.1 |
| 20260504215824 | 68 | 278 | 3.5 | 8.7 | 0.00 | 0.00 | 0.00 | 20 | 998.1 |
| 20260504215321 | 68 | 266 | 4.3 | 7.0 | 0.00 | 0.00 | 0.00 | 19 | 998.1 |
| 20260504214817 | 65 | 263 | 2.6 | 3.5 | 0.00 | 0.00 | 0.00 | 20 | 998.1 |